sensor_id;sensor_type;location;lat;lon;timestamp;pressure;altitude;pressure_sealevel;temperature;humidity
23619;BME280;18207;32.078;34.818;2023-01-27T00:01:56;101033.44;;;21.88;36.97
23619;BME280;18207;32.078;34.818;2023-01-27T00:04:26;101029.34;;;21.86;36.94
23619;BME280;18207;32.078;34.818;2023-01-27T00:07:13;101031.66;;;21.84;37.02
23619;BME280;18207;32.078;34.818;2023-01-27T00:09:43;101031.16;;;21.82;37.22
23619;BME280;18207;32.078;34.818;2023-01-27T00:12:20;101032.00;;;21.82;36.87
23619;BME280;18207;32.078;34.818;2023-01-27T00:15:09;101039.41;;;21.78;37.46
23619;BME280;18207;32.078;34.818;2023-01-27T00:17:40;101032.19;;;21.77;37.50
23619;BME280;18207;32.078;34.818;2023-01-27T00:20:11;101036.97;;;21.77;37.16
23619;BME280;18207;32.078;34.818;2023-01-27T00:23:04;101036.47;;;21.75;37.40
23619;BME280;18207;32.078;34.818;2023-01-27T00:25:51;101030.38;;;21.73;37.58
23619;BME280;18207;32.078;34.818;2023-01-27T00:28:26;101037.97;;;21.72;37.55
23619;BME280;18207;32.078;34.818;2023-01-27T00:30:59;101028.25;;;21.70;37.53
23619;BME280;18207;32.078;34.818;2023-01-27T00:33:29;101036.66;;;21.70;37.32
23619;BME280;18207;32.078;34.818;2023-01-27T00:36:02;101028.25;;;21.70;37.40
23619;BME280;18207;32.078;34.818;2023-01-27T00:38:35;101024.16;;;21.67;37.55
23619;BME280;18207;32.078;34.818;2023-01-27T00:41:08;101019.06;;;21.69;37.73
23619;BME280;18207;32.078;34.818;2023-01-27T00:43:48;101025.81;;;21.68;37.17
23619;BME280;18207;32.078;34.818;2023-01-27T00:46:20;101018.56;;;21.67;37.27
23619;BME280;18207;32.078;34.818;2023-01-27T00:48:51;101018.56;;;21.67;37.42
23619;BME280;18207;32.078;34.818;2023-01-27T00:51:21;101018.56;;;21.67;37.59
23619;BME280;18207;32.078;34.818;2023-01-27T00:53:53;101018.56;;;21.67;37.15
23619;BME280;18207;32.078;34.818;2023-01-27T00:56:24;101013.81;;;21.68;37.21
23619;BME280;18207;32.078;34.818;2023-01-27T00:58:55;101014.97;;;21.67;37.48
23619;BME280;18207;32.078;34.818;2023-01-27T01:01:25;101007.72;;;21.66;37.37
23619;BME280;18207;32.078;34.818;2023-01-27T01:03:56;101006.88;;;21.65;37.21
23619;BME280;18207;32.078;34.818;2023-01-27T01:06:27;101002.44;;;21.64;37.35
23619;BME280;18207;32.078;34.818;2023-01-27T01:08:59;101000.50;;;21.65;37.49
23619;BME280;18207;32.078;34.818;2023-01-27T01:11:29;101000.50;;;21.65;37.67
23619;BME280;18207;32.078;34.818;2023-01-27T01:14:00;101005.25;;;21.64;37.14
23619;BME280;18207;32.078;34.818;2023-01-27T01:16:30;101005.25;;;21.64;37.52
23619;BME280;18207;32.078;34.818;2023-01-27T01:19:01;101002.44;;;21.64;37.42
23619;BME280;18207;32.078;34.818;2023-01-27T01:21:31;101012.84;;;21.64;36.90
23619;BME280;18207;32.078;34.818;2023-01-27T01:24:04;101005.25;;;21.64;37.12
23619;BME280;18207;32.078;34.818;2023-01-27T01:26:35;101000.84;;;21.63;37.15
23619;BME280;18207;32.078;34.818;2023-01-27T01:29:05;101000.00;;;21.63;36.87
23619;BME280;18207;32.078;34.818;2023-01-27T01:31:35;100997.56;;;21.61;37.21
23619;BME280;18207;32.078;34.818;2023-01-27T01:34:06;101000.34;;;21.61;37.05
23619;BME280;18207;32.078;34.818;2023-01-27T01:36:39;100993.44;;;21.59;37.46
23619;BME280;18207;32.078;34.818;2023-01-27T01:39:10;100993.78;;;21.57;37.01
23619;BME280;18207;32.078;34.818;2023-01-27T01:41:41;100994.13;;;21.56;37.29
23619;BME280;18207;32.078;34.818;2023-01-27T01:44:22;100994.13;;;21.56;36.85
23619;BME280;18207;32.078;34.818;2023-01-27T01:46:54;100988.00;;;21.54;37.20
23619;BME280;18207;32.078;34.818;2023-01-27T01:49:30;100978.81;;;21.53;36.85
23619;BME280;18207;32.078;34.818;2023-01-27T01:52:07;100969.59;;;21.53;37.42
23619;BME280;18207;32.078;34.818;2023-01-27T01:54:46;100973.53;;;21.52;37.36
23619;BME280;18207;32.078;34.818;2023-01-27T01:57:25;100981.94;;;21.52;37.15
23619;BME280;18207;32.078;34.818;2023-01-27T02:00:00;100981.13;;;21.52;37.22
23619;BME280;18207;32.078;34.818;2023-01-27T02:02:31;100979.13;;;21.52;37.32
23619;BME280;18207;32.078;34.818;2023-01-27T02:05:07;100977.16;;;21.52;36.76
23619;BME280;18207;32.078;34.818;2023-01-27T02:07:45;100981.94;;;21.52;36.88
23619;BME280;18207;32.078;34.818;2023-01-27T02:10:22;100977.47;;;21.51;37.38
23619;BME280;18207;32.078;34.818;2023-01-27T02:12:53;100986.22;;;21.50;36.97
23619;BME280;18207;32.078;34.818;2023-01-27T02:15:23;100977.84;;;21.50;37.20
23619;BME280;18207;32.078;34.818;2023-01-27T02:17:54;100964.50;;;21.47;37.07
23619;BME280;18207;32.078;34.818;2023-01-27T02:20:35;100964.88;;;21.45;36.59
23619;BME280;18207;32.078;34.818;2023-01-27T02:23:25;100965.22;;;21.44;37.30
23619;BME280;18207;32.078;34.818;2023-01-27T02:26:02;100961.91;;;21.42;36.61
23619;BME280;18207;32.078;34.818;2023-01-27T02:28:35;100964.22;;;21.40;36.85
23619;BME280;18207;32.078;34.818;2023-01-27T02:31:06;100966.19;;;21.39;36.83
23619;BME280;18207;32.078;34.818;2023-01-27T02:33:36;100971.78;;;21.39;37.19
23619;BME280;18207;32.078;34.818;2023-01-27T02:36:12;100975.41;;;21.40;36.60
23619;BME280;18207;32.078;34.818;2023-01-27T02:38:48;100972.97;;;21.38;37.24
23619;BME280;18207;32.078;34.818;2023-01-27T02:41:25;100972.97;;;21.38;36.65
23619;BME280;18207;32.078;34.818;2023-01-27T02:43:56;100985.28;;;21.37;36.90
23619;BME280;18207;32.078;34.818;2023-01-27T02:46:27;100984.81;;;21.35;36.71
23619;BME280;18207;32.078;34.818;2023-01-27T02:48:57;100986.75;;;21.35;37.05
23619;BME280;18207;32.078;34.818;2023-01-27T02:51:28;100985.97;;;21.34;37.00
23619;BME280;18207;32.078;34.818;2023-01-27T02:53:59;100993.03;;;21.32;36.94
23619;BME280;18207;32.078;34.818;2023-01-27T02:56:31;100988.59;;;21.31;36.58
23619;BME280;18207;32.078;34.818;2023-01-27T02:59:02;100996.16;;;21.30;37.07
23619;BME280;18207;32.078;34.818;2023-01-27T03:01:32;101009.66;;;21.28;36.52
23619;BME280;18207;32.078;34.818;2023-01-27T03:04:03;101020.00;;;21.28;36.45
23619;BME280;18207;32.078;34.818;2023-01-27T03:06:35;101017.56;;;21.26;36.59
23619;BME280;18207;32.078;34.818;2023-01-27T03:09:06;101021.50;;;21.25;36.70
23619;BME280;18207;32.078;34.818;2023-01-27T03:11:38;101021.84;;;21.24;37.04
23619;BME280;18207;32.078;34.818;2023-01-27T03:14:26;101028.09;;;21.21;36.88
23619;BME280;18207;32.078;34.818;2023-01-27T03:17:13;101036.81;;;21.19;36.97
23619;BME280;18207;32.078;34.818;2023-01-27T03:20:00;101034.34;;;21.18;36.60
23619;BME280;18207;32.078;34.818;2023-01-27T03:22:30;101039.13;;;21.17;36.63
23619;BME280;18207;32.078;34.818;2023-01-27T03:25:01;101034.69;;;21.16;36.94
23619;BME280;18207;32.078;34.818;2023-01-27T03:27:33;101031.06;;;21.16;36.48
23619;BME280;18207;32.078;34.818;2023-01-27T03:30:04;101032.56;;;21.13;36.99
23619;BME280;18207;32.078;34.818;2023-01-27T03:32:35;101032.91;;;21.12;36.72
23619;BME280;18207;32.078;34.818;2023-01-27T03:35:06;101036.00;;;21.10;36.57
23619;BME280;18207;32.078;34.818;2023-01-27T03:37:36;101033.53;;;21.09;36.77
23619;BME280;18207;32.078;34.818;2023-01-27T03:40:23;101035.84;;;21.07;36.69
23619;BME280;18207;32.078;34.818;2023-01-27T03:43:12;101039.31;;;21.04;36.63
23619;BME280;18207;32.078;34.818;2023-01-27T03:45:59;101038.50;;;21.03;36.94
23619;BME280;18207;32.078;34.818;2023-01-27T03:48:52;101042.44;;;21.02;36.87
23619;BME280;18207;32.078;34.818;2023-01-27T03:51:24;101044.72;;;21.00;37.00
23619;BME280;18207;32.078;34.818;2023-01-27T03:53:55;101049.50;;;21.00;37.23
23619;BME280;18207;32.078;34.818;2023-01-27T03:56:28;101043.13;;;20.99;37.15
23619;BME280;18207;32.078;34.818;2023-01-27T03:59:00;101049.84;;;20.98;37.06
23619;BME280;18207;32.078;34.818;2023-01-27T04:01:30;101054.59;;;20.98;36.75
23619;BME280;18207;32.078;34.818;2023-01-27T04:04:01;101055.75;;;20.97;37.41
23619;BME280;18207;32.078;34.818;2023-01-27T04:06:48;101063.66;;;20.95;36.56
23619;BME280;18207;32.078;34.818;2023-01-27T04:09:24;101050.50;;;20.95;36.81
23619;BME280;18207;32.078;34.818;2023-01-27T04:11:57;101060.38;;;20.93;36.76
23619;BME280;18207;32.078;34.818;2023-01-27T04:14:32;101063.16;;;20.93;37.16
23619;BME280;18207;32.078;34.818;2023-01-27T04:17:08;101067.91;;;20.92;36.54
23619;BME280;18207;32.078;34.818;2023-01-27T04:19:40;101057.59;;;20.93;36.96
23619;BME280;18207;32.078;34.818;2023-01-27T04:22:11;101054.78;;;20.93;36.74
23619;BME280;18207;32.078;34.818;2023-01-27T04:24:42;101053.94;;;20.92;36.60
23619;BME280;18207;32.078;34.818;2023-01-27T04:27:14;101043.63;;;20.93;37.15
23619;BME280;18207;32.078;34.818;2023-01-27T04:29:47;101056.44;;;20.94;37.08
23619;BME280;18207;32.078;34.818;2023-01-27T04:32:17;101047.72;;;20.95;37.05
23619;BME280;18207;32.078;34.818;2023-01-27T04:34:47;101048.53;;;20.96;37.12
23619;BME280;18207;32.078;34.818;2023-01-27T04:37:18;101040.63;;;20.98;37.07
23619;BME280;18207;32.078;34.818;2023-01-27T04:39:48;101034.75;;;20.99;36.97
23619;BME280;18207;32.078;34.818;2023-01-27T04:42:18;101033.91;;;20.99;37.10
23619;BME280;18207;32.078;34.818;2023-01-27T04:44:50;101033.56;;;21.00;36.71
23619;BME280;18207;32.078;34.818;2023-01-27T04:47:20;101044.06;;;21.03;36.71
23619;BME280;18207;32.078;34.818;2023-01-27T04:49:51;101040.47;;;21.03;36.88
23619;BME280;18207;32.078;34.818;2023-01-27T04:52:22;101043.72;;;21.05;36.45
23619;BME280;18207;32.078;34.818;2023-01-27T04:54:52;101042.59;;;21.06;37.06
23619;BME280;18207;32.078;34.818;2023-01-27T04:57:22;101037.84;;;21.06;36.64
23619;BME280;18207;32.078;34.818;2023-01-27T04:59:56;101033.88;;;21.07;36.57
23619;BME280;18207;32.078;34.818;2023-01-27T05:02:27;101037.50;;;21.08;37.12
23619;BME280;18207;32.078;34.818;2023-01-27T05:04:57;101035.53;;;21.08;37.00
23619;BME280;18207;32.078;34.818;2023-01-27T05:07:27;101041.94;;;21.09;36.61
23619;BME280;18207;32.078;34.818;2023-01-27T05:09:59;101044.38;;;21.10;37.06
23619;BME280;18207;32.078;34.818;2023-01-27T05:12:29;101037.66;;;21.11;36.66
23619;BME280;18207;32.078;34.818;2023-01-27T05:15:01;101045.72;;;21.13;37.09
23619;BME280;18207;32.078;34.818;2023-01-27T05:17:32;101043.06;;;21.16;36.94
23619;BME280;18207;32.078;34.818;2023-01-27T05:20:03;101054.22;;;21.25;36.85
23619;BME280;18207;32.078;34.818;2023-01-27T05:22:33;101050.25;;;21.34;36.99
23619;BME280;18207;32.078;34.818;2023-01-27T05:25:05;101045.59;;;21.47;37.21
23619;BME280;18207;32.078;34.818;2023-01-27T05:27:35;101044.59;;;21.59;37.15
23619;BME280;18207;32.078;34.818;2023-01-27T05:30:11;101045.69;;;21.75;37.56
23619;BME280;18207;32.078;34.818;2023-01-27T05:32:41;101039.53;;;21.90;37.92
23619;BME280;18207;32.078;34.818;2023-01-27T05:35:11;101039.78;;;22.06;37.34
23619;BME280;18207;32.078;34.818;2023-01-27T05:37:42;101038.84;;;22.22;37.91
23619;BME280;18207;32.078;34.818;2023-01-27T05:40:12;101038.25;;;22.37;38.00
23619;BME280;18207;32.078;34.818;2023-01-27T05:42:43;101026.44;;;22.52;38.01
23619;BME280;18207;32.078;34.818;2023-01-27T05:45:16;101025.00;;;22.66;37.71
23619;BME280;18207;32.078;34.818;2023-01-27T05:47:48;101029.84;;;22.78;37.65
23619;BME280;18207;32.078;34.818;2023-01-27T05:50:19;101019.84;;;22.89;37.89
23619;BME280;18207;32.078;34.818;2023-01-27T05:52:49;101029.13;;;23.01;38.08
23619;BME280;18207;32.078;34.818;2023-01-27T05:55:20;101023.59;;;23.13;38.05
23619;BME280;18207;32.078;34.818;2023-01-27T05:57:50;101030.03;;;23.26;37.65
23619;BME280;18207;32.078;34.818;2023-01-27T06:00:22;101031.00;;;23.41;37.78
23619;BME280;18207;32.078;34.818;2023-01-27T06:02:53;101031.16;;;23.57;38.26
23619;BME280;18207;32.078;34.818;2023-01-27T06:05:23;101029.78;;;23.75;38.18
23619;BME280;18207;32.078;34.818;2023-01-27T06:07:53;101041.25;;;23.94;38.21
23619;BME280;18207;32.078;34.818;2023-01-27T06:10:25;101029.53;;;24.16;38.31
23619;BME280;18207;32.078;34.818;2023-01-27T06:12:56;101032.78;;;24.41;38.18
23619;BME280;18207;32.078;34.818;2023-01-27T06:15:29;101028.06;;;24.69;38.05
23619;BME280;18207;32.078;34.818;2023-01-27T06:18:02;101023.34;;;25.01;38.28
23619;BME280;18207;32.078;34.818;2023-01-27T06:20:33;101027.91;;;25.32;37.93
23619;BME280;18207;32.078;34.818;2023-01-27T06:23:04;101024.56;;;25.58;38.00
23619;BME280;18207;32.078;34.818;2023-01-27T06:25:40;101018.31;;;25.80;37.64
23619;BME280;18207;32.078;34.818;2023-01-27T06:28:11;101015.59;;;25.98;37.55
23619;BME280;18207;32.078;34.818;2023-01-27T06:31:05;101010.00;;;26.17;37.57
23619;BME280;18207;32.078;34.818;2023-01-27T06:33:36;101004.75;;;26.35;37.54
23619;BME280;18207;32.078;34.818;2023-01-27T06:36:09;101003.56;;;26.51;37.32
23619;BME280;18207;32.078;34.818;2023-01-27T06:38:41;101001.50;;;26.67;37.41
23619;BME280;18207;32.078;34.818;2023-01-27T06:41:11;101009.06;;;26.82;37.28
23619;BME280;18207;32.078;34.818;2023-01-27T06:43:41;101010.16;;;26.96;37.23
23619;BME280;18207;32.078;34.818;2023-01-27T06:46:14;101019.00;;;27.14;37.35
23619;BME280;18207;32.078;34.818;2023-01-27T06:48:44;101024.19;;;27.31;37.07
23619;BME280;18207;32.078;34.818;2023-01-27T06:51:15;101025.31;;;27.49;37.27
23619;BME280;18207;32.078;34.818;2023-01-27T06:53:45;101031.72;;;27.65;36.67
23619;BME280;18207;32.078;34.818;2023-01-27T06:56:16;101024.72;;;27.81;36.93
23619;BME280;18207;32.078;34.818;2023-01-27T06:58:47;101029.03;;;27.97;36.91
23619;BME280;18207;32.078;34.818;2023-01-27T07:01:19;101034.97;;;28.15;36.71
23619;BME280;18207;32.078;34.818;2023-01-27T07:03:49;101041.69;;;28.29;36.76
23619;BME280;18207;32.078;34.818;2023-01-27T07:06:19;101047.19;;;28.45;36.60
23619;BME280;18207;32.078;34.818;2023-01-27T07:08:50;101047.81;;;28.61;36.49
23619;BME280;18207;32.078;34.818;2023-01-27T07:11:22;101040.75;;;28.77;36.51
23619;BME280;18207;32.078;34.818;2023-01-27T07:13:52;101044.63;;;28.91;36.28
23619;BME280;18207;32.078;34.818;2023-01-27T07:16:27;101037.94;;;29.06;36.49
23619;BME280;18207;32.078;34.818;2023-01-27T07:18:58;101043.75;;;29.20;36.25
23619;BME280;18207;32.078;34.818;2023-01-27T07:21:28;101034.59;;;29.34;35.94
23619;BME280;18207;32.078;34.818;2023-01-27T07:23:59;101029.13;;;29.48;35.98
23619;BME280;18207;32.078;34.818;2023-01-27T07:26:29;101016.31;;;29.60;35.61
23619;BME280;18207;32.078;34.818;2023-01-27T07:28:59;101023.28;;;29.73;35.79
23619;BME280;18207;32.078;34.818;2023-01-27T07:31:33;101023.84;;;29.86;35.29
23619;BME280;18207;32.078;34.818;2023-01-27T07:34:03;101014.22;;;29.97;34.99
23619;BME280;18207;32.078;34.818;2023-01-27T07:36:33;101012.28;;;30.08;35.35
23619;BME280;18207;32.078;34.818;2023-01-27T07:39:04;101007.88;;;30.18;35.27
23619;BME280;18207;32.078;34.818;2023-01-27T07:41:34;100999.84;;;30.27;34.79
23619;BME280;18207;32.078;34.818;2023-01-27T07:44:05;100999.50;;;30.35;34.73
23619;BME280;18207;32.078;34.818;2023-01-27T07:46:37;101002.81;;;30.44;35.01
23619;BME280;18207;32.078;34.818;2023-01-27T07:49:07;101000.84;;;30.51;34.95
23619;BME280;18207;32.078;34.818;2023-01-27T07:51:39;100998.03;;;30.58;34.71
23619;BME280;18207;32.078;34.818;2023-01-27T07:54:10;100995.22;;;30.65;34.80
23619;BME280;18207;32.078;34.818;2023-01-27T07:56:40;100991.63;;;30.72;34.90
23619;BME280;18207;32.078;34.818;2023-01-27T07:59:11;100983.16;;;30.79;34.71
23619;BME280;18207;32.078;34.818;2023-01-27T08:01:43;100974.66;;;30.86;34.44
23619;BME280;18207;32.078;34.818;2023-01-27T08:04:15;100975.88;;;30.92;33.67
23619;BME280;18207;32.078;34.818;2023-01-27T08:06:46;100968.63;;;30.98;33.93
23619;BME280;18207;32.078;34.818;2023-01-27T08:09:18;100965.41;;;31.03;33.20
23619;BME280;18207;32.078;34.818;2023-01-27T08:11:49;100970.72;;;31.08;33.72
23619;BME280;18207;32.078;34.818;2023-01-27T08:14:19;100973.56;;;31.15;33.32
23619;BME280;18207;32.078;34.818;2023-01-27T08:16:51;100969.09;;;31.21;33.65
23619;BME280;18207;32.078;34.818;2023-01-27T08:19:21;100965.47;;;31.27;33.02
23619;BME280;18207;32.078;34.818;2023-01-27T08:21:52;100967.91;;;31.35;32.91
23619;BME280;18207;32.078;34.818;2023-01-27T08:24:23;100966.28;;;31.41;32.71
23619;BME280;18207;32.078;34.818;2023-01-27T08:26:54;100969.13;;;31.48;32.22
23619;BME280;18207;32.078;34.818;2023-01-27T08:29:25;100954.16;;;31.55;32.17
23619;BME280;18207;32.078;34.818;2023-01-27T08:31:58;100948.06;;;31.63;32.19
23619;BME280;18207;32.078;34.818;2023-01-27T08:34:28;100939.94;;;31.69;32.32
23619;BME280;18207;32.078;34.818;2023-01-27T08:36:59;100939.16;;;31.72;31.71
23619;BME280;18207;32.078;34.818;2023-01-27T08:39:30;100942.78;;;31.76;31.74
23619;BME280;18207;32.078;34.818;2023-01-27T08:42:01;100934.25;;;31.79;31.58
23619;BME280;18207;32.078;34.818;2023-01-27T08:44:31;100937.50;;;31.81;31.28
23619;BME280;18207;32.078;34.818;2023-01-27T08:47:04;100936.69;;;31.84;30.90
23619;BME280;18207;32.078;34.818;2023-01-27T08:49:36;100925.31;;;31.84;31.00
23619;BME280;18207;32.078;34.818;2023-01-27T08:52:06;100918.81;;;31.80;30.75
23619;BME280;18207;32.078;34.818;2023-01-27T08:54:37;100915.59;;;31.82;30.90
23619;BME280;18207;32.078;34.818;2023-01-27T08:57:08;100913.13;;;31.80;30.49
23619;BME280;18207;32.078;34.818;2023-01-27T08:59:39;100910.69;;;31.82;30.04
23619;BME280;18207;32.078;34.818;2023-01-27T09:02:13;100913.53;;;31.82;30.49
23619;BME280;18207;32.078;34.818;2023-01-27T09:04:44;100907.06;;;31.82;30.00
23619;BME280;18207;32.078;34.818;2023-01-27T09:07:15;100901.75;;;31.80;29.93
23619;BME280;18207;32.078;34.818;2023-01-27T09:09:46;100896.50;;;31.79;30.33
23619;BME280;18207;32.078;34.818;2023-01-27T09:12:19;100899.72;;;31.77;30.17
23619;BME280;18207;32.078;34.818;2023-01-27T09:14:49;100899.34;;;31.72;29.50
23619;BME280;18207;32.078;34.818;2023-01-27T09:17:23;100894.06;;;31.67;29.55
23619;BME280;18207;32.078;34.818;2023-01-27T09:19:54;100881.88;;;31.59;29.50
23619;BME280;18207;32.078;34.818;2023-01-27T09:22:24;100879.44;;;31.54;28.79
23619;BME280;18207;32.078;34.818;2023-01-27T09:24:54;100874.97;;;31.50;29.23
23619;BME280;18207;32.078;34.818;2023-01-27T09:27:24;100864.81;;;31.45;29.22
23619;BME280;18207;32.078;34.818;2023-01-27T09:30:10;100858.75;;;31.40;29.05
23619;BME280;18207;32.078;34.818;2023-01-27T09:32:43;100848.59;;;31.35;28.97
23619;BME280;18207;32.078;34.818;2023-01-27T09:35:13;100844.13;;;31.31;28.54
23619;BME280;18207;32.078;34.818;2023-01-27T09:37:51;100847.38;;;31.26;28.95
23619;BME280;18207;32.078;34.818;2023-01-27T09:40:30;100833.97;;;31.20;28.25
23619;BME280;18207;32.078;34.818;2023-01-27T09:43:44;100836.03;;;31.12;28.62
23619;BME280;18207;32.078;34.818;2023-01-27T09:46:54;100816.13;;;31.05;28.55
23619;BME280;18207;32.078;34.818;2023-01-27T09:49:54;100814.47;;;31.01;28.10
23619;BME280;18207;32.078;34.818;2023-01-27T09:52:56;100807.16;;;30.96;28.25
23619;BME280;18207;32.078;34.818;2023-01-27T09:55:39;100797.03;;;30.92;28.68
23619;BME280;18207;32.078;34.818;2023-01-27T09:58:26;100797.03;;;30.88;28.41
23619;BME280;18207;32.078;34.818;2023-01-27T10:01:11;100786.88;;;30.84;28.59
23619;BME280;18207;32.078;34.818;2023-01-27T10:04:23;100797.41;;;30.76;28.00
23619;BME280;18207;32.078;34.818;2023-01-27T10:07:22;100786.84;;;30.70;28.35
23619;BME280;18207;32.078;34.818;2023-01-27T10:10:21;100781.19;;;30.63;28.42
23619;BME280;18207;32.078;34.818;2023-01-27T10:13:26;100778.34;;;30.56;28.32
23619;BME280;18207;32.078;34.818;2023-01-27T10:16:20;100765.75;;;30.50;28.37
23619;BME280;18207;32.078;34.818;2023-01-27T10:19:12;100768.56;;;30.43;28.92
23619;BME280;18207;32.078;34.818;2023-01-27T10:21:56;100770.97;;;30.38;28.22
23619;BME280;18207;32.078;34.818;2023-01-27T10:24:47;100765.28;;;30.31;28.52
23619;BME280;18207;32.078;34.818;2023-01-27T10:27:26;100767.69;;;30.25;28.23
23619;BME280;18207;32.078;34.818;2023-01-27T10:30:10;100766.06;;;30.21;28.33
23619;BME280;18207;32.078;34.818;2023-01-27T10:32:47;100761.59;;;30.16;28.15
23619;BME280;18207;32.078;34.818;2023-01-27T10:35:27;100767.66;;;30.11;27.98
23619;BME280;18207;32.078;34.818;2023-01-27T10:38:12;100765.22;;;30.06;28.50
23619;BME280;18207;32.078;34.818;2023-01-27T10:40:55;100774.50;;;30.00;28.21
23619;BME280;18207;32.078;34.818;2023-01-27T10:43:39;100774.91;;;29.95;28.22
23619;BME280;18207;32.078;34.818;2023-01-27T10:46:27;100774.03;;;29.91;28.10
23619;BME280;18207;32.078;34.818;2023-01-27T10:49:08;100770.34;;;29.87;28.15
23619;BME280;18207;32.078;34.818;2023-01-27T10:51:48;100768.34;;;29.84;28.01
23619;BME280;18207;32.078;34.818;2023-01-27T10:54:31;100776.41;;;29.78;27.95
23619;BME280;18207;32.078;34.818;2023-01-27T10:57:10;100783.69;;;29.76;27.71
23619;BME280;18207;32.078;34.818;2023-01-27T10:59:51;100783.25;;;29.70;28.11
23619;BME280;18207;32.078;34.818;2023-01-27T11:02:52;100784.41;;;29.62;28.22
23619;BME280;18207;32.078;34.818;2023-01-27T11:05:33;100781.94;;;29.57;28.20
23619;BME280;18207;32.078;34.818;2023-01-27T11:08:11;100779.47;;;29.52;28.22
23619;BME280;18207;32.078;34.818;2023-01-27T11:10:47;100786.75;;;29.47;28.57
23619;BME280;18207;32.078;34.818;2023-01-27T11:13:40;100783.03;;;29.39;28.88
23619;BME280;18207;32.078;34.818;2023-01-27T11:16:16;100782.19;;;29.35;28.64
23619;BME280;18207;32.078;34.818;2023-01-27T11:19:01;100792.25;;;29.29;28.47
23619;BME280;18207;32.078;34.818;2023-01-27T11:21:38;100784.13;;;29.24;28.59
23619;BME280;18207;32.078;34.818;2023-01-27T11:24:25;100782.06;;;29.18;28.86
23619;BME280;18207;32.078;34.818;2023-01-27T11:27:06;100777.56;;;29.13;28.95
23619;BME280;18207;32.078;34.818;2023-01-27T11:29:48;100783.59;;;29.08;28.64
23619;BME280;18207;32.078;34.818;2023-01-27T11:32:40;100770.22;;;29.02;28.81
23619;BME280;18207;32.078;34.818;2023-01-27T11:35:15;100771.41;;;28.97;28.89
23619;BME280;18207;32.078;34.818;2023-01-27T11:37:48;100767.72;;;28.93;28.63
23619;BME280;18207;32.078;34.818;2023-01-27T11:40:57;100768.06;;;28.88;29.00
23619;BME280;18207;32.078;34.818;2023-01-27T11:44:23;100770.03;;;28.81;28.94
23619;BME280;18207;32.078;34.818;2023-01-27T11:47:26;100760.22;;;28.75;28.96
23619;BME280;18207;32.078;34.818;2023-01-27T11:49:59;100764.66;;;28.72;29.04
23619;BME280;18207;32.078;34.818;2023-01-27T11:52:32;100755.31;;;28.68;29.03
23619;BME280;18207;32.078;34.818;2023-01-27T11:55:13;100748.06;;;28.67;28.74
23619;BME280;18207;32.078;34.818;2023-01-27T11:57:49;100744.38;;;28.63;29.11
23619;BME280;18207;32.078;34.818;2023-01-27T12:00:25;100733.84;;;28.61;28.64
23619;BME280;18207;32.078;34.818;2023-01-27T12:03:19;100730.59;;;28.59;29.03
23619;BME280;18207;32.078;34.818;2023-01-27T12:06:13;100734.97;;;28.53;29.03
23619;BME280;18207;32.078;34.818;2023-01-27T12:08:46;100730.91;;;28.50;29.08
23619;BME280;18207;32.078;34.818;2023-01-27T12:11:21;100731.31;;;28.49;29.35
23619;BME280;18207;32.078;34.818;2023-01-27T12:13:56;100724.41;;;28.46;29.25
23619;BME280;18207;32.078;34.818;2023-01-27T12:16:43;100714.69;;;28.44;29.06
23619;BME280;18207;32.078;34.818;2023-01-27T12:19:25;100709.00;;;28.40;29.25
23619;BME280;18207;32.078;34.818;2023-01-27T12:21:59;100706.94;;;28.37;29.17
23619;BME280;18207;32.078;34.818;2023-01-27T12:24:35;100706.53;;;28.35;29.48
23619;BME280;18207;32.078;34.818;2023-01-27T12:27:20;100705.28;;;28.33;29.22
23619;BME280;18207;32.078;34.818;2023-01-27T12:29:55;100704.06;;;28.30;29.23
23619;BME280;18207;32.078;34.818;2023-01-27T12:32:37;100699.19;;;28.27;29.30
23619;BME280;18207;32.078;34.818;2023-01-27T12:35:22;100699.97;;;28.24;29.31
23619;BME280;18207;32.078;34.818;2023-01-27T12:38:00;100694.22;;;28.21;29.07
23619;BME280;18207;32.078;34.818;2023-01-27T12:40:33;100697.47;;;28.19;29.33
23619;BME280;18207;32.078;34.818;2023-01-27T12:43:12;100700.69;;;28.18;29.30
23619;BME280;18207;32.078;34.818;2023-01-27T12:45:44;100695.81;;;28.15;29.36
23619;BME280;18207;32.078;34.818;2023-01-27T12:48:19;100697.00;;;28.14;29.27
23619;BME280;18207;32.078;34.818;2023-01-27T12:51:05;100712.72;;;28.11;29.19
23619;BME280;18207;32.078;34.818;2023-01-27T12:53:43;100698.56;;;28.08;29.31
23619;BME280;18207;32.078;34.818;2023-01-27T12:56:16;100696.09;;;28.06;29.05
23619;BME280;18207;32.078;34.818;2023-01-27T12:58:57;100696.91;;;28.03;29.72
23619;BME280;18207;32.078;34.818;2023-01-27T13:01:36;100693.63;;;28.01;29.35
23619;BME280;18207;32.078;34.818;2023-01-27T13:04:15;100700.06;;;27.98;29.40
23619;BME280;18207;32.078;34.818;2023-01-27T13:06:52;100691.16;;;27.96;29.48
23619;BME280;18207;32.078;34.818;2023-01-27T13:09:28;100696.41;;;27.94;29.34
23619;BME280;18207;32.078;34.818;2023-01-27T13:12:04;100687.50;;;27.92;29.49
23619;BME280;18207;32.078;34.818;2023-01-27T13:14:41;100687.06;;;27.90;29.64
23619;BME280;18207;32.078;34.818;2023-01-27T13:17:35;100692.28;;;27.88;29.20
23619;BME280;18207;32.078;34.818;2023-01-27T13:20:18;100688.22;;;27.86;29.49
23619;BME280;18207;32.078;34.818;2023-01-27T13:23:00;100694.25;;;27.84;29.57
23619;BME280;18207;32.078;34.818;2023-01-27T13:25:37;100688.19;;;27.82;29.49